Kennedy, Alabama
Current Conditions -  °F | °C
As of 1:58 AM on Tuesday 21 Oct 2014 (Local Time) from KCBM Reporting Station
Clear Clear  
Wind Chill: 49°   Ceiling: Unl
Heat Index: 49°   Visibility: 10mi
Dew Point: 49°   Wind: 1mph
Humidity: 100%   Direction: 360°N
Pressure: 30.03"   Gusts: NA
Location:  33.59°N, 87.98°W
Report Text: KCBM 210658Z AUTO 36001KT 10SM CLR 09/09 A3003 RMK AO2 SLP171 T00920092 $
Loading
Personal Weather Stations






























Interactive Weather Map
Tropical Storm Tracking
New forecast layout! Learn more

10-Day Weather Forecast

Advertisements
Track Severe Weather on mobile